sensor_id;sensor_type;location;lat;lon;timestamp;pressure;altitude;pressure_sealevel;temperature;humidity
18755;BME280;35061;47.664;9.166;2024-01-11T00:01:47;102371.26;;;-0.60;89.95
18755;BME280;35061;47.664;9.166;2024-01-11T00:04:15;102372.04;;;-0.63;90.01
18755;BME280;35061;47.664;9.166;2024-01-11T00:06:44;102373.25;;;-0.61;90.43
18755;BME280;35061;47.664;9.166;2024-01-11T00:09:12;102372.07;;;-0.60;90.09
18755;BME280;35061;47.664;9.166;2024-01-11T00:11:40;102376.13;;;-0.57;90.02
18755;BME280;35061;47.664;9.166;2024-01-11T00:14:08;102373.68;;;-0.59;90.21
18755;BME280;35061;47.664;9.166;2024-01-11T00:16:36;102379.82;;;-0.53;90.57
18755;BME280;35061;47.664;9.166;2024-01-11T00:19:04;102382.60;;;-0.57;89.90
18755;BME280;35061;47.664;9.166;2024-01-11T00:21:32;102374.95;;;-0.56;90.21
18755;BME280;35061;47.664;9.166;2024-01-11T00:24:03;102377.77;;;-0.56;90.14
18755;BME280;35061;47.664;9.166;2024-01-11T00:26:31;102376.13;;;-0.57;89.88
18755;BME280;35061;47.664;9.166;2024-01-11T00:28:59;102376.13;;;-0.57;89.90
18755;BME280;35061;47.664;9.166;2024-01-11T00:31:27;102371.32;;;-0.57;90.27
18755;BME280;35061;47.664;9.166;2024-01-11T00:33:55;102371.78;;;-0.54;90.29
18755;BME280;35061;47.664;9.166;2024-01-11T00:36:23;102380.28;;;-0.51;89.99
18755;BME280;35061;47.664;9.166;2024-01-11T00:38:51;102375.34;;;-0.58;89.66
18755;BME280;35061;47.664;9.166;2024-01-11T00:41:19;102377.34;;;-0.58;89.90
18755;BME280;35061;47.664;9.166;2024-01-11T00:43:47;102381.75;;;-0.57;90.47
18755;BME280;35061;47.664;9.166;2024-01-11T00:46:15;102374.88;;;-0.60;89.84
18755;BME280;35061;47.664;9.166;2024-01-11T00:48:43;102376.85;;;-0.64;89.88
18755;BME280;35061;47.664;9.166;2024-01-11T00:51:11;102377.96;;;-0.68;89.65
18755;BME280;35061;47.664;9.166;2024-01-11T00:53:39;102386.33;;;-0.72;89.85
18755;BME280;35061;47.664;9.166;2024-01-11T00:56:20;102387.12;;;-0.75;89.86
18755;BME280;35061;47.664;9.166;2024-01-11T00:58:48;102377.41;;;-0.78;90.23
18755;BME280;35061;47.664;9.166;2024-01-11T01:01:16;102382.24;;;-0.78;89.71
18755;BME280;35061;47.664;9.166;2024-01-11T01:03:44;102375.28;;;-0.85;89.58
18755;BME280;35061;47.664;9.166;2024-01-11T01:06:12;102377.27;;;-0.85;90.05
18755;BME280;35061;47.664;9.166;2024-01-11T01:08:40;102380.09;;;-0.85;89.84
18755;BME280;35061;47.664;9.166;2024-01-11T01:11:08;102374.92;;;-0.83;90.10
18755;BME280;35061;47.664;9.166;2024-01-11T01:13:37;102370.87;;;-0.86;89.55
18755;BME280;35061;47.664;9.166;2024-01-11T01:16:05;102373.31;;;-0.84;89.35
18755;BME280;35061;47.664;9.166;2024-01-11T01:18:33;102382.05;;;-0.89;89.04
18755;BME280;35061;47.664;9.166;2024-01-11T01:21:01;102388.00;;;-0.94;88.89
18755;BME280;35061;47.664;9.166;2024-01-11T01:23:29;102388.29;;;-1.00;88.73
18755;BME280;35061;47.664;9.166;2024-01-11T01:25:57;102398.27;;;-1.02;88.96
18755;BME280;35061;47.664;9.166;2024-01-11T01:28:25;102397.35;;;-1.10;88.59
18755;BME280;35061;47.664;9.166;2024-01-11T01:30:53;102404.16;;;-1.11;88.84
18755;BME280;35061;47.664;9.166;2024-01-11T01:33:21;102398.85;;;-1.16;88.56
18755;BME280;35061;47.664;9.166;2024-01-11T01:35:49;102404.31;;;-1.23;88.51
18755;BME280;35061;47.664;9.166;2024-01-11T01:38:17;102412.63;;;-1.31;88.74
18755;BME280;35061;47.664;9.166;2024-01-11T01:40:45;102420.70;;;-1.29;88.85
18755;BME280;35061;47.664;9.166;2024-01-11T01:43:13;102415.86;;;-1.29;88.89
18755;BME280;35061;47.664;9.166;2024-01-11T01:45:41;102424.00;;;-1.23;89.49
18755;BME280;35061;47.664;9.166;2024-01-11T01:48:09;102415.73;;;-1.16;89.40
18755;BME280;35061;47.664;9.166;2024-01-11T01:50:38;102416.61;;;-1.12;89.63
18755;BME280;35061;47.664;9.166;2024-01-11T01:53:06;102412.33;;;-1.02;89.37
18755;BME280;35061;47.664;9.166;2024-01-11T01:55:35;102414.88;;;-0.97;89.11
18755;BME280;35061;47.664;9.166;2024-01-11T01:58:03;102418.93;;;-0.94;88.88
18755;BME280;35061;47.664;9.166;2024-01-11T02:00:32;102407.72;;;-0.91;89.08
18755;BME280;35061;47.664;9.166;2024-01-11T02:03:00;102414.68;;;-0.85;89.25
18755;BME280;35061;47.664;9.166;2024-01-11T02:05:28;102418.87;;;-0.75;88.90
18755;BME280;35061;47.664;9.166;2024-01-11T02:07:57;102422.92;;;-0.72;88.73
18755;BME280;35061;47.664;9.166;2024-01-11T02:10:27;102420.11;;;-0.72;88.80
18755;BME280;35061;47.664;9.166;2024-01-11T02:12:56;102428.55;;;-0.72;88.56
18755;BME280;35061;47.664;9.166;2024-01-11T02:15:24;102427.30;;;-0.75;88.21
18755;BME280;35061;47.664;9.166;2024-01-11T02:17:52;102430.57;;;-0.73;88.72
18755;BME280;35061;47.664;9.166;2024-01-11T02:20:20;102430.25;;;-0.67;88.74
18755;BME280;35061;47.664;9.166;2024-01-11T02:22:53;102429.89;;;-0.66;88.26
18755;BME280;35061;47.664;9.166;2024-01-11T02:25:23;102435.12;;;-0.64;88.17
18755;BME280;35061;47.664;9.166;2024-01-11T02:27:51;102436.30;;;-0.65;88.25
18755;BME280;35061;47.664;9.166;2024-01-11T02:30:19;102427.86;;;-0.65;88.03
18755;BME280;35061;47.664;9.166;2024-01-11T02:32:48;102436.30;;;-0.65;88.30
18755;BME280;35061;47.664;9.166;2024-01-11T02:35:18;102428.32;;;-0.63;88.14
18755;BME280;35061;47.664;9.166;2024-01-11T02:37:46;102426.75;;;-0.61;87.75
18755;BME280;35061;47.664;9.166;2024-01-11T02:40:15;102432.30;;;-0.64;87.47
18755;BME280;35061;47.664;9.166;2024-01-11T02:42:44;102422.98;;;-0.68;87.39
18755;BME280;35061;47.664;9.166;2024-01-11T02:45:12;102427.20;;;-0.82;85.94
18755;BME280;35061;47.664;9.166;2024-01-11T02:47:40;102434.01;;;-0.83;87.25
18755;BME280;35061;47.664;9.166;2024-01-11T02:50:09;102420.30;;;-0.85;87.27
18755;BME280;35061;47.664;9.166;2024-01-11T02:52:37;102425.18;;;-0.81;87.04
18755;BME280;35061;47.664;9.166;2024-01-11T02:55:05;102423.55;;;-0.82;87.29
18755;BME280;35061;47.664;9.166;2024-01-11T02:57:33;102427.20;;;-0.82;87.21
18755;BME280;35061;47.664;9.166;2024-01-11T03:00:01;102427.50;;;-0.87;86.96
18755;BME280;35061;47.664;9.166;2024-01-11T03:02:30;102419.88;;;-0.87;87.25
18755;BME280;35061;47.664;9.166;2024-01-11T03:04:58;102422.27;;;-0.89;86.95
18755;BME280;35061;47.664;9.166;2024-01-11T03:07:26;102412.20;;;-0.90;86.72
18755;BME280;35061;47.664;9.166;2024-01-11T03:09:54;102416.91;;;-0.94;86.33
18755;BME280;35061;47.664;9.166;2024-01-11T03:12:22;102410.50;;;-0.94;86.83
18755;BME280;35061;47.664;9.166;2024-01-11T03:14:50;102412.55;;;-0.91;87.00
18755;BME280;35061;47.664;9.166;2024-01-11T03:17:18;102416.61;;;-0.89;86.88
18755;BME280;35061;47.664;9.166;2024-01-11T03:19:46;102412.69;;;-0.84;86.75
18755;BME280;35061;47.664;9.166;2024-01-11T03:22:14;102416.68;;;-0.85;86.65
18755;BME280;35061;47.664;9.166;2024-01-11T03:24:42;102419.55;;;-0.81;86.67
18755;BME280;35061;47.664;9.166;2024-01-11T03:27:10;102416.80;;;-0.78;86.22
18755;BME280;35061;47.664;9.166;2024-01-11T03:29:38;102413.99;;;-0.78;85.65
18755;BME280;35061;47.664;9.166;2024-01-11T03:32:06;102410.37;;;-0.78;86.22
18755;BME280;35061;47.664;9.166;2024-01-11T03:34:34;102413.70;;;-0.73;86.18
18755;BME280;35061;47.664;9.166;2024-01-11T03:37:02;102409.29;;;-0.70;86.24
18755;BME280;35061;47.664;9.166;2024-01-11T03:39:31;102411.38;;;-0.67;85.41
18755;BME280;35061;47.664;9.166;2024-01-11T03:41:59;102413.77;;;-0.69;85.42
18755;BME280;35061;47.664;9.166;2024-01-11T03:44:27;102410.89;;;-0.73;85.19
18755;BME280;35061;47.664;9.166;2024-01-11T03:46:54;102412.79;;;-0.77;85.36
18755;BME280;35061;47.664;9.166;2024-01-11T03:49:23;102417.23;;;-0.76;85.50
18755;BME280;35061;47.664;9.166;2024-01-11T03:51:51;102415.66;;;-0.73;85.50
18755;BME280;35061;47.664;9.166;2024-01-11T03:54:19;102407.48;;;-0.82;84.99
18755;BME280;35061;47.664;9.166;2024-01-11T03:56:47;102415.04;;;-0.86;84.88
18755;BME280;35061;47.664;9.166;2024-01-11T03:59:16;102407.69;;;-0.94;84.66
18755;BME280;35061;47.664;9.166;2024-01-11T04:01:44;102407.69;;;-0.94;84.54
18755;BME280;35061;47.664;9.166;2024-01-11T04:04:13;102406.05;;;-0.95;85.47
18755;BME280;35061;47.664;9.166;2024-01-11T04:06:41;102406.12;;;-0.92;85.19
18755;BME280;35061;47.664;9.166;2024-01-11T04:09:09;102399.73;;;-0.89;85.10
18755;BME280;35061;47.664;9.166;2024-01-11T04:11:37;102401.30;;;-0.91;84.14
18755;BME280;35061;47.664;9.166;2024-01-11T04:14:06;102400.09;;;-0.90;84.95
18755;BME280;35061;47.664;9.166;2024-01-11T04:16:34;102403.70;;;-0.93;84.39
18755;BME280;35061;47.664;9.166;2024-01-11T04:19:07;102397.68;;;-0.92;84.68
18755;BME280;35061;47.664;9.166;2024-01-11T04:21:35;102404.55;;;-0.89;85.05
18755;BME280;35061;47.664;9.166;2024-01-11T04:24:07;102405.82;;;-0.87;84.90
18755;BME280;35061;47.664;9.166;2024-01-11T04:26:35;102406.93;;;-0.91;84.41
18755;BME280;35061;47.664;9.166;2024-01-11T04:29:03;102399.28;;;-0.91;84.68
18755;BME280;35061;47.664;9.166;2024-01-11T04:31:31;102406.34;;;-1.01;84.08
18755;BME280;35061;47.664;9.166;2024-01-11T04:33:59;102406.67;;;-1.06;84.23
18755;BME280;35061;47.664;9.166;2024-01-11T04:36:28;102406.21;;;-1.08;84.68
18755;BME280;35061;47.664;9.166;2024-01-11T04:38:56;102405.59;;;-1.21;83.86
18755;BME280;35061;47.664;9.166;2024-01-11T04:41:23;102401.30;;;-1.34;84.70
18755;BME280;35061;47.664;9.166;2024-01-11T04:43:52;102413.02;;;-1.32;84.82
18755;BME280;35061;47.664;9.166;2024-01-11T04:46:21;102403.66;;;-1.36;84.66
18755;BME280;35061;47.664;9.166;2024-01-11T04:48:50;102410.40;;;-1.41;84.71
18755;BME280;35061;47.664;9.166;2024-01-11T04:51:18;102403.92;;;-1.45;85.07
18755;BME280;35061;47.664;9.166;2024-01-11T04:53:46;102400.66;;;-1.47;84.65
18755;BME280;35061;47.664;9.166;2024-01-11T04:56:16;102409.38;;;-1.52;85.04
18755;BME280;35061;47.664;9.166;2024-01-11T04:58:44;102409.38;;;-1.52;84.98
18755;BME280;35061;47.664;9.166;2024-01-11T05:01:14;102401.63;;;-1.59;84.76
18755;BME280;35061;47.664;9.166;2024-01-11T05:03:46;102402.65;;;-1.67;85.00
18755;BME280;35061;47.664;9.166;2024-01-11T05:06:18;102401.70;;;-1.75;84.72
18755;BME280;35061;47.664;9.166;2024-01-11T05:08:49;102397.61;;;-1.78;85.58
18755;BME280;35061;47.664;9.166;2024-01-11T05:11:18;102394.21;;;-1.87;84.97
18755;BME280;35061;47.664;9.166;2024-01-11T05:13:46;102391.63;;;-1.96;85.27
18755;BME280;35061;47.664;9.166;2024-01-11T05:16:28;102394.73;;;-2.01;85.48
18755;BME280;35061;47.664;9.166;2024-01-11T05:18:59;102399.09;;;-2.04;85.83
18755;BME280;35061;47.664;9.166;2024-01-11T05:21:27;102394.93;;;-2.10;86.17
18755;BME280;35061;47.664;9.166;2024-01-11T05:23:55;102389.30;;;-2.10;86.19
18755;BME280;35061;47.664;9.166;2024-01-11T05:26:23;102396.37;;;-2.00;86.60
18755;BME280;35061;47.664;9.166;2024-01-11T05:28:51;102398.23;;;-2.04;85.78
18755;BME280;35061;47.664;9.166;2024-01-11T05:31:19;102390.58;;;-2.07;85.93
18755;BME280;35061;47.664;9.166;2024-01-11T05:33:47;102392.64;;;-2.04;86.54
18755;BME280;35061;47.664;9.166;2024-01-11T05:36:16;102391.92;;;-2.01;86.91
18755;BME280;35061;47.664;9.166;2024-01-11T05:38:46;102391.92;;;-2.01;86.68
18755;BME280;35061;47.664;9.166;2024-01-11T05:41:14;102405.43;;;-2.07;86.62
18755;BME280;35061;47.664;9.166;2024-01-11T05:43:42;102398.23;;;-2.04;86.78
18755;BME280;35061;47.664;9.166;2024-01-11T05:46:11;102404.61;;;-2.07;86.57
18755;BME280;35061;47.664;9.166;2024-01-11T05:48:42;102404.52;;;-2.11;86.59
18755;BME280;35061;47.664;9.166;2024-01-11T05:51:10;102407.48;;;-2.04;87.17
18755;BME280;35061;47.664;9.166;2024-01-11T05:53:41;102410.46;;;-1.97;87.18
18755;BME280;35061;47.664;9.166;2024-01-11T05:56:10;102409.65;;;-1.97;86.64
18755;BME280;35061;47.664;9.166;2024-01-11T05:58:39;102416.02;;;-2.00;86.88
18755;BME280;35061;47.664;9.166;2024-01-11T06:01:10;102421.62;;;-2.00;86.57
18755;BME280;35061;47.664;9.166;2024-01-11T06:03:38;102422.82;;;-2.01;86.89
18755;BME280;35061;47.664;9.166;2024-01-11T06:06:09;102422.86;;;-1.98;87.20
18755;BME280;35061;47.664;9.166;2024-01-11T06:08:37;102432.99;;;-1.93;86.87
18755;BME280;35061;47.664;9.166;2024-01-11T06:11:06;102433.16;;;-1.86;87.30
18755;BME280;35061;47.664;9.166;2024-01-11T06:13:35;102436.85;;;-1.82;87.08
18755;BME280;35061;47.664;9.166;2024-01-11T06:16:03;102432.60;;;-1.75;87.27
18755;BME280;35061;47.664;9.166;2024-01-11T06:18:31;102437.12;;;-1.71;87.01
18755;BME280;35061;47.664;9.166;2024-01-11T06:21:02;102430.15;;;-1.77;86.58
18755;BME280;35061;47.664;9.166;2024-01-11T06:23:30;102432.90;;;-1.80;86.74
18755;BME280;35061;47.664;9.166;2024-01-11T06:26:02;102437.18;;;-1.87;86.81
18755;BME280;35061;47.664;9.166;2024-01-11T06:28:31;102440.32;;;-1.88;87.17
18755;BME280;35061;47.664;9.166;2024-01-11T06:31:01;102442.05;;;-1.84;87.71
18755;BME280;35061;47.664;9.166;2024-01-11T06:33:30;102446.86;;;-1.84;87.13
18755;BME280;35061;47.664;9.166;2024-01-11T06:36:00;102448.49;;;-1.83;87.40
18755;BME280;35061;47.664;9.166;2024-01-11T06:38:28;102439.08;;;-1.91;87.16
18755;BME280;35061;47.664;9.166;2024-01-11T06:40:56;102445.06;;;-1.92;87.31
18755;BME280;35061;47.664;9.166;2024-01-11T06:43:25;102450.59;;;-1.96;87.30
18755;BME280;35061;47.664;9.166;2024-01-11T06:46:07;102454.02;;;-1.87;88.14
18755;BME280;35061;47.664;9.166;2024-01-11T06:48:37;102461.45;;;-1.78;87.57
18755;BME280;35061;47.664;9.166;2024-01-11T06:51:05;102461.70;;;-1.84;86.94
18755;BME280;35061;47.664;9.166;2024-01-11T06:53:39;102454.77;;;-1.90;86.92
18755;BME280;35061;47.664;9.166;2024-01-11T06:56:17;102457.29;;;-2.01;86.61
18755;BME280;35061;47.664;9.166;2024-01-11T06:58:46;102466.22;;;-2.15;86.84
18755;BME280;35061;47.664;9.166;2024-01-11T07:01:14;102470.20;;;-2.16;87.55
18755;BME280;35061;47.664;9.166;2024-01-11T07:03:42;102476.81;;;-2.24;87.23
18755;BME280;35061;47.664;9.166;2024-01-11T07:06:10;102474.49;;;-2.22;87.88
18755;BME280;35061;47.664;9.166;2024-01-11T07:08:39;102481.42;;;-2.16;87.99
18755;BME280;35061;47.664;9.166;2024-01-11T07:11:07;102478.19;;;-2.18;87.56
18755;BME280;35061;47.664;9.166;2024-01-11T07:13:35;102483.98;;;-2.11;87.69
18755;BME280;35061;47.664;9.166;2024-01-11T07:16:03;102493.59;;;-2.12;87.38
18755;BME280;35061;47.664;9.166;2024-01-11T07:18:31;102498.27;;;-2.16;87.42
18755;BME280;35061;47.664;9.166;2024-01-11T07:20:59;102498.72;;;-2.14;87.69
18755;BME280;35061;47.664;9.166;2024-01-11T07:23:27;102496.62;;;-2.17;87.31
18755;BME280;35061;47.664;9.166;2024-01-11T07:25:55;102501.27;;;-2.25;87.17
18755;BME280;35061;47.664;9.166;2024-01-11T07:28:23;102496.10;;;-2.22;87.75
18755;BME280;35061;47.664;9.166;2024-01-11T07:30:53;102499.73;;;-2.22;87.41
18755;BME280;35061;47.664;9.166;2024-01-11T07:33:21;102494.73;;;-2.29;86.92
18755;BME280;35061;47.664;9.166;2024-01-11T07:35:49;102498.66;;;-2.33;87.42
18755;BME280;35061;47.664;9.166;2024-01-11T07:38:18;102488.98;;;-2.36;87.54
18755;BME280;35061;47.664;9.166;2024-01-11T07:40:46;102501.47;;;-2.33;87.15
18755;BME280;35061;47.664;9.166;2024-01-11T07:43:14;102496.10;;;-2.39;87.37
18755;BME280;35061;47.664;9.166;2024-01-11T07:45:42;102504.54;;;-2.39;87.34
18755;BME280;35061;47.664;9.166;2024-01-11T07:48:10;102507.16;;;-2.46;87.19
18755;BME280;35061;47.664;9.166;2024-01-11T07:50:39;102505.88;;;-2.48;87.49
18755;BME280;35061;47.664;9.166;2024-01-11T07:53:07;102513.14;;;-2.47;87.45
18755;BME280;35061;47.664;9.166;2024-01-11T07:55:35;102518.37;;;-2.46;87.95
18755;BME280;35061;47.664;9.166;2024-01-11T07:58:03;102518.37;;;-2.46;87.52
18755;BME280;35061;47.664;9.166;2024-01-11T08:00:31;102516.84;;;-2.43;87.77
18755;BME280;35061;47.664;9.166;2024-01-11T08:02:59;102519.39;;;-2.38;87.77
18755;BME280;35061;47.664;9.166;2024-01-11T08:05:28;102520.63;;;-2.35;87.51
18755;BME280;35061;47.664;9.166;2024-01-11T08:07:56;102525.80;;;-2.37;87.29
18755;BME280;35061;47.664;9.166;2024-01-11T08:10:24;102535.51;;;-2.35;87.53
18755;BME280;35061;47.664;9.166;2024-01-11T08:12:52;102536.03;;;-2.29;87.77
18755;BME280;35061;47.664;9.166;2024-01-11T08:15:20;102540.94;;;-2.26;87.50
18755;BME280;35061;47.664;9.166;2024-01-11T08:17:48;102530.96;;;-2.23;87.71
18755;BME280;35061;47.664;9.166;2024-01-11T08:20:16;102529.59;;;-2.14;88.30
18755;BME280;35061;47.664;9.166;2024-01-11T08:22:44;102528.05;;;-2.11;88.30
18755;BME280;35061;47.664;9.166;2024-01-11T08:25:14;102530.96;;;-2.07;87.94
18755;BME280;35061;47.664;9.166;2024-01-11T08:27:42;102532.80;;;-1.99;87.67
18755;BME280;35061;47.664;9.166;2024-01-11T08:30:10;102543.36;;;-1.92;87.50
18755;BME280;35061;47.664;9.166;2024-01-11T08:32:40;102547.45;;;-1.90;87.45
18755;BME280;35061;47.664;9.166;2024-01-11T08:35:09;102550.32;;;-1.86;87.29
18755;BME280;35061;47.664;9.166;2024-01-11T08:37:38;102554.31;;;-1.87;87.01
18755;BME280;35061;47.664;9.166;2024-01-11T08:40:07;102557.65;;;-1.82;87.13
18755;BME280;35061;47.664;9.166;2024-01-11T08:42:37;102561.93;;;-1.88;85.41
18755;BME280;35061;47.664;9.166;2024-01-11T08:45:06;102565.76;;;-1.96;85.68
18755;BME280;35061;47.664;9.166;2024-01-11T08:47:35;102562.95;;;-1.96;86.62
18755;BME280;35061;47.664;9.166;2024-01-11T08:50:04;102562.68;;;-1.91;86.79
18755;BME280;35061;47.664;9.166;2024-01-11T08:52:33;102550.52;;;-1.95;86.23
18755;BME280;35061;47.664;9.166;2024-01-11T08:55:02;102558.86;;;-1.99;85.96
18755;BME280;35061;47.664;9.166;2024-01-11T08:57:30;102556.34;;;-2.04;85.94
18755;BME280;35061;47.664;9.166;2024-01-11T08:59:58;102562.75;;;-2.03;86.24
18755;BME280;35061;47.664;9.166;2024-01-11T09:02:26;102555.59;;;-2.01;86.49
18755;BME280;35061;47.664;9.166;2024-01-11T09:04:54;102560.95;;;-1.95;86.63
18755;BME280;35061;47.664;9.166;2024-01-11T09:07:22;102567.91;;;-1.89;86.51
18755;BME280;35061;47.664;9.166;2024-01-11T09:09:50;102579.13;;;-1.89;86.03
18755;BME280;35061;47.664;9.166;2024-01-11T09:12:23;102583.22;;;-1.87;86.00
18755;BME280;35061;47.664;9.166;2024-01-11T09:14:51;102573.18;;;-1.88;85.86
18755;BME280;35061;47.664;9.166;2024-01-11T09:17:19;102573.80;;;-1.78;85.98
18755;BME280;35061;47.664;9.166;2024-01-11T09:19:47;102573.80;;;-1.78;85.07
18755;BME280;35061;47.664;9.166;2024-01-11T09:22:15;102560.33;;;-1.89;85.29
18755;BME280;35061;47.664;9.166;2024-01-11T09:24:43;102567.16;;;-1.86;85.73
18755;BME280;35061;47.664;9.166;2024-01-11T09:27:11;102566.90;;;-1.81;85.52
18755;BME280;35061;47.664;9.166;2024-01-11T09:29:45;102574.69;;;-1.74;85.55
18755;BME280;35061;47.664;9.166;2024-01-11T09:32:15;102575.53;;;-1.74;85.14
18755;BME280;35061;47.664;9.166;2024-01-11T09:34:43;102582.04;;;-1.70;85.42
18755;BME280;35061;47.664;9.166;2024-01-11T09:37:13;102586.59;;;-1.81;83.80
18755;BME280;35061;47.664;9.166;2024-01-11T09:39:41;102585.61;;;-1.89;84.64
18755;BME280;35061;47.664;9.166;2024-01-11T09:42:10;102594.47;;;-1.87;84.86
18755;BME280;35061;47.664;9.166;2024-01-11T09:44:38;102598.16;;;-1.83;84.79
18755;BME280;35061;47.664;9.166;2024-01-11T09:47:08;102590.02;;;-1.88;84.89
18755;BME280;35061;47.664;9.166;2024-01-11T09:49:43;102594.66;;;-1.79;84.95
18755;BME280;35061;47.664;9.166;2024-01-11T09:52:12;102593.72;;;-1.84;84.10
18755;BME280;35061;47.664;9.166;2024-01-11T09:54:42;102595.91;;;-1.93;84.80
18755;BME280;35061;47.664;9.166;2024-01-11T09:57:15;102590.28;;;-1.93;85.08
18755;BME280;35061;47.664;9.166;2024-01-11T09:59:51;102589.50;;;-1.93;84.77
18755;BME280;35061;47.664;9.166;2024-01-11T10:02:25;102596.40;;;-1.91;85.38
18755;BME280;35061;47.664;9.166;2024-01-11T10:04:59;102602.91;;;-1.87;85.00
18755;BME280;35061;47.664;9.166;2024-01-11T10:07:30;102608.95;;;-1.85;85.09
18755;BME280;35061;47.664;9.166;2024-01-11T10:09:58;102606.60;;;-1.83;85.20
18755;BME280;35061;47.664;9.166;2024-01-11T10:12:29;102619.65;;;-1.74;85.18
18755;BME280;35061;47.664;9.166;2024-01-11T10:15:05;102613.14;;;-1.78;84.75
18755;BME280;35061;47.664;9.166;2024-01-11T10:17:34;102619.94;;;-1.79;84.16
18755;BME280;35061;47.664;9.166;2024-01-11T10:20:05;102627.89;;;-1.82;84.95
18755;BME280;35061;47.664;9.166;2024-01-11T10:22:33;102631.71;;;-1.90;84.42
18755;BME280;35061;47.664;9.166;2024-01-11T10:25:10;102631.32;;;-1.88;84.88
18755;BME280;35061;47.664;9.166;2024-01-11T10:27:40;102630.54;;;-1.89;85.13
18755;BME280;35061;47.664;9.166;2024-01-11T10:30:15;102619.38;;;-1.85;84.71
18755;BME280;35061;47.664;9.166;2024-01-11T10:32:45;102619.45;;;-1.82;84.65
18755;BME280;35061;47.664;9.166;2024-01-11T10:35:14;102609.87;;;-1.80;84.66
18755;BME280;35061;47.664;9.166;2024-01-11T10:37:43;102606.99;;;-1.84;84.25
18755;BME280;35061;47.664;9.166;2024-01-11T10:40:12;102617.13;;;-1.79;84.72
18755;BME280;35061;47.664;9.166;2024-01-11T10:42:49;102617.20;;;-1.76;85.29
18755;BME280;35061;47.664;9.166;2024-01-11T10:45:19;102615.30;;;-1.72;85.03
18755;BME280;35061;47.664;9.166;2024-01-11T10:47:54;102611.51;;;-1.63;85.20
18755;BME280;35061;47.664;9.166;2024-01-11T10:50:30;102613.92;;;-1.62;83.95
18755;BME280;35061;47.664;9.166;2024-01-11T10:55:40;102613.92;;;-1.62;84.21
18755;BME280;35061;47.664;9.166;2024-01-11T10:58:10;102613.47;;;-1.64;84.13
18755;BME280;35061;47.664;9.166;2024-01-11T11:00:39;102617.55;;;-1.61;84.57
18755;BME280;35061;47.664;9.166;2024-01-11T11:03:08;102605.75;;;-1.51;84.69
18755;BME280;35061;47.664;9.166;2024-01-11T11:05:37;102597.12;;;-1.42;84.65
18755;BME280;35061;47.664;9.166;2024-01-11T11:08:07;102592.02;;;-1.36;84.27
18755;BME280;35061;47.664;9.166;2024-01-11T11:10:36;102589.59;;;-1.38;84.33
18755;BME280;35061;47.664;9.166;2024-01-11T11:13:05;102579.23;;;-1.34;84.38
18755;BME280;35061;47.664;9.166;2024-01-11T11:15:35;102572.95;;;-1.27;84.65
18755;BME280;35061;47.664;9.166;2024-01-11T11:18:04;102574.65;;;-1.22;83.99
18755;BME280;35061;47.664;9.166;2024-01-11T11:20:35;102572.13;;;-1.28;83.37
18755;BME280;35061;47.664;9.166;2024-01-11T11:23:07;102565.27;;;-1.30;83.74
18755;BME280;35061;47.664;9.166;2024-01-11T11:25:35;102570.79;;;-1.34;83.73
18755;BME280;35061;47.664;9.166;2024-01-11T11:28:04;102567.55;;;-1.36;83.89
18755;BME280;35061;47.664;9.166;2024-01-11T11:30:43;102567.03;;;-1.42;83.59
18755;BME280;35061;47.664;9.166;2024-01-11T11:33:23;102560.88;;;-1.47;83.29
18755;BME280;35061;47.664;9.166;2024-01-11T11:35:54;102556.70;;;-1.53;83.74
18755;BME280;35061;47.664;9.166;2024-01-11T11:38:26;102543.84;;;-1.55;84.22
18755;BME280;35061;47.664;9.166;2024-01-11T11:41:00;102529.49;;;-1.49;84.31
18755;BME280;35061;47.664;9.166;2024-01-11T11:43:29;102537.99;;;-1.46;84.24
18755;BME280;35061;47.664;9.166;2024-01-11T11:45:57;102540.02;;;-1.46;83.84
18755;BME280;35061;47.664;9.166;2024-01-11T11:51:17;102541.20;;;-1.47;84.05
18755;BME280;35061;47.664;9.166;2024-01-11T11:53:52;102540.45;;;-1.44;84.28
18755;BME280;35061;47.664;9.166;2024-01-11T11:56:21;102536.91;;;-1.41;84.32
18755;BME280;35061;47.664;9.166;2024-01-11T11:58:50;102532.20;;;-1.37;84.06
18755;BME280;35061;47.664;9.166;2024-01-11T12:01:20;102528.87;;;-1.43;83.81
18755;BME280;35061;47.664;9.166;2024-01-11T12:03:48;102537.63;;;-1.44;83.94
18755;BME280;35061;47.664;9.166;2024-01-11T12:06:18;102528.77;;;-1.46;83.85
18755;BME280;35061;47.664;9.166;2024-01-11T12:08:47;102537.47;;;-1.51;83.42
18755;BME280;35061;47.664;9.166;2024-01-11T12:11:19;102533.77;;;-1.56;84.29
18755;BME280;35061;47.664;9.166;2024-01-11T12:13:49;102535.84;;;-1.52;84.16
18755;BME280;35061;47.664;9.166;2024-01-11T12:16:17;102538.23;;;-1.55;84.28
18755;BME280;35061;47.664;9.166;2024-01-11T12:18:46;102527.86;;;-1.50;84.35
18755;BME280;35061;47.664;9.166;2024-01-11T12:21:14;102523.15;;;-1.46;84.52
18755;BME280;35061;47.664;9.166;2024-01-11T12:23:43;102529.66;;;-1.42;84.31
18755;BME280;35061;47.664;9.166;2024-01-11T12:26:12;102526.48;;;-1.41;83.95
18755;BME280;35061;47.664;9.166;2024-01-11T12:28:42;102526.95;;;-1.38;84.33
18755;BME280;35061;47.664;9.166;2024-01-11T12:31:12;102529.82;;;-1.35;84.10
18755;BME280;35061;47.664;9.166;2024-01-11T12:33:40;102536.72;;;-1.32;84.08
18755;BME280;35061;47.664;9.166;2024-01-11T12:36:09;102529.07;;;-1.32;83.55
18755;BME280;35061;47.664;9.166;2024-01-11T12:38:46;102534.63;;;-1.35;82.48
18755;BME280;35061;47.664;9.166;2024-01-11T12:41:20;102535.45;;;-1.35;83.21
18755;BME280;35061;47.664;9.166;2024-01-11T12:43:49;102536.23;;;-1.34;83.09
18755;BME280;35061;47.664;9.166;2024-01-11T12:46:17;102535.54;;;-1.31;82.94
18755;BME280;35061;47.664;9.166;2024-01-11T12:48:47;102534.46;;;-1.23;83.17
18755;BME280;35061;47.664;9.166;2024-01-11T12:51:19;102538.95;;;-1.22;82.09
18755;BME280;35061;47.664;9.166;2024-01-11T12:53:48;102536.85;;;-1.25;81.40
18755;BME280;35061;47.664;9.166;2024-01-11T12:56:18;102533.05;;;-1.33;81.74
18755;BME280;35061;47.664;9.166;2024-01-11T12:58:47;102545.19;;;-1.29;82.48
18755;BME280;35061;47.664;9.166;2024-01-11T13:01:15;102549.02;;;-1.21;82.26
18755;BME280;35061;47.664;9.166;2024-01-11T13:03:44;102553.79;;;-1.21;82.05
18755;BME280;35061;47.664;9.166;2024-01-11T13:06:15;102552.61;;;-1.20;81.68